sensor_id;sensor_type;location;lat;lon;timestamp;P1;durP1;ratioP1;P2;durP2;ratioP2
56122;SDS011;42426;46.104;19.656;2024-01-30T00:01:04;269.00;;;149.60;;
56122;SDS011;42426;46.104;19.656;2024-01-30T00:03:30;271.77;;;148.75;;
56122;SDS011;42426;46.104;19.656;2024-01-30T00:05:57;272.23;;;149.02;;
56122;SDS011;42426;46.104;19.656;2024-01-30T00:08:23;270.05;;;143.38;;
56122;SDS011;42426;46.104;19.656;2024-01-30T00:10:51;258.15;;;146.02;;
56122;SDS011;42426;46.104;19.656;2024-01-30T00:13:17;252.93;;;140.00;;
56122;SDS011;42426;46.104;19.656;2024-01-30T00:15:45;238.07;;;133.88;;
56122;SDS011;42426;46.104;19.656;2024-01-30T00:18:11;251.23;;;133.88;;
56122;SDS011;42426;46.104;19.656;2024-01-30T00:20:39;241.80;;;131.40;;
56122;SDS011;42426;46.104;19.656;2024-01-30T00:23:05;235.65;;;134.10;;
56122;SDS011;42426;46.104;19.656;2024-01-30T00:25:33;241.93;;;134.13;;
56122;SDS011;42426;46.104;19.656;2024-01-30T00:27:59;248.25;;;137.05;;
56122;SDS011;42426;46.104;19.656;2024-01-30T00:30:26;221.52;;;133.00;;
56122;SDS011;42426;46.104;19.656;2024-01-30T00:32:53;247.80;;;137.88;;
56122;SDS011;42426;46.104;19.656;2024-01-30T00:35:19;270.58;;;147.35;;
56122;SDS011;42426;46.104;19.656;2024-01-30T00:37:47;277.88;;;148.52;;
56122;SDS011;42426;46.104;19.656;2024-01-30T00:40:13;316.15;;;161.82;;
56122;SDS011;42426;46.104;19.656;2024-01-30T00:42:43;284.80;;;151.57;;
56122;SDS011;42426;46.104;19.656;2024-01-30T00:45:16;277.13;;;148.95;;
56122;SDS011;42426;46.104;19.656;2024-01-30T00:47:42;262.52;;;144.70;;
56122;SDS011;42426;46.104;19.656;2024-01-30T00:50:10;258.52;;;136.25;;
56122;SDS011;42426;46.104;19.656;2024-01-30T00:52:36;240.02;;;129.30;;
56122;SDS011;42426;46.104;19.656;2024-01-30T00:55:04;239.80;;;130.77;;
56122;SDS011;42426;46.104;19.656;2024-01-30T00:57:30;259.10;;;138.13;;
56122;SDS011;42426;46.104;19.656;2024-01-30T00:59:57;250.98;;;133.48;;
56122;SDS011;42426;46.104;19.656;2024-01-30T01:02:23;245.27;;;132.88;;
56122;SDS011;42426;46.104;19.656;2024-01-30T01:04:49;243.73;;;131.90;;
56122;SDS011;42426;46.104;19.656;2024-01-30T01:07:15;225.05;;;121.00;;
56122;SDS011;42426;46.104;19.656;2024-01-30T01:09:42;242.25;;;132.05;;
56122;SDS011;42426;46.104;19.656;2024-01-30T01:12:08;234.32;;;126.50;;
56122;SDS011;42426;46.104;19.656;2024-01-30T01:14:34;223.13;;;122.18;;
56122;SDS011;42426;46.104;19.656;2024-01-30T01:17:01;241.82;;;130.98;;
56122;SDS011;42426;46.104;19.656;2024-01-30T01:19:27;238.18;;;131.80;;
56122;SDS011;42426;46.104;19.656;2024-01-30T01:21:52;246.95;;;134.32;;
56122;SDS011;42426;46.104;19.656;2024-01-30T01:24:18;247.10;;;131.55;;
56122;SDS011;42426;46.104;19.656;2024-01-30T01:26:44;252.30;;;136.52;;
56122;SDS011;42426;46.104;19.656;2024-01-30T01:29:10;270.75;;;134.20;;
56122;SDS011;42426;46.104;19.656;2024-01-30T01:31:37;246.98;;;130.35;;
56122;SDS011;42426;46.104;19.656;2024-01-30T01:34:09;241.18;;;129.73;;
56122;SDS011;42426;46.104;19.656;2024-01-30T01:36:39;239.80;;;127.13;;
56122;SDS011;42426;46.104;19.656;2024-01-30T01:39:05;246.18;;;126.88;;
56122;SDS011;42426;46.104;19.656;2024-01-30T01:41:31;269.30;;;139.65;;
56122;SDS011;42426;46.104;19.656;2024-01-30T01:43:57;261.15;;;131.77;;
56122;SDS011;42426;46.104;19.656;2024-01-30T01:46:26;309.23;;;159.45;;
56122;SDS011;42426;46.104;19.656;2024-01-30T01:48:53;252.25;;;131.98;;
56122;SDS011;42426;46.104;19.656;2024-01-30T01:51:19;220.93;;;116.15;;
56122;SDS011;42426;46.104;19.656;2024-01-30T01:53:46;213.90;;;109.82;;
56122;SDS011;42426;46.104;19.656;2024-01-30T01:56:12;245.98;;;127.60;;
56122;SDS011;42426;46.104;19.656;2024-01-30T01:58:38;248.93;;;129.45;;
56122;SDS011;42426;46.104;19.656;2024-01-30T02:01:07;252.75;;;130.43;;
56122;SDS011;42426;46.104;19.656;2024-01-30T02:03:34;230.25;;;125.03;;
56122;SDS011;42426;46.104;19.656;2024-01-30T02:06:00;229.38;;;124.53;;
56122;SDS011;42426;46.104;19.656;2024-01-30T02:08:27;255.88;;;136.98;;
56122;SDS011;42426;46.104;19.656;2024-01-30T02:10:53;261.85;;;131.35;;
56122;SDS011;42426;46.104;19.656;2024-01-30T02:13:20;244.88;;;127.18;;
56122;SDS011;42426;46.104;19.656;2024-01-30T02:15:50;238.27;;;123.95;;
56122;SDS011;42426;46.104;19.656;2024-01-30T02:18:18;201.18;;;110.25;;
56122;SDS011;42426;46.104;19.656;2024-01-30T02:20:44;196.45;;;111.82;;
56122;SDS011;42426;46.104;19.656;2024-01-30T02:23:11;182.73;;;100.93;;
56122;SDS011;42426;46.104;19.656;2024-01-30T02:25:39;170.07;;;97.60;;
56122;SDS011;42426;46.104;19.656;2024-01-30T02:28:12;183.60;;;98.97;;
56122;SDS011;42426;46.104;19.656;2024-01-30T02:30:38;178.20;;;95.72;;
56122;SDS011;42426;46.104;19.656;2024-01-30T02:33:05;181.90;;;101.53;;
56122;SDS011;42426;46.104;19.656;2024-01-30T02:35:31;168.60;;;94.85;;
56122;SDS011;42426;46.104;19.656;2024-01-30T02:37:58;174.25;;;91.07;;
56122;SDS011;42426;46.104;19.656;2024-01-30T02:40:24;152.63;;;86.00;;
56122;SDS011;42426;46.104;19.656;2024-01-30T02:42:50;159.23;;;83.38;;
56122;SDS011;42426;46.104;19.656;2024-01-30T02:45:16;161.93;;;84.22;;
56122;SDS011;42426;46.104;19.656;2024-01-30T02:47:43;147.32;;;81.88;;
56122;SDS011;42426;46.104;19.656;2024-01-30T02:50:09;148.80;;;84.32;;
56122;SDS011;42426;46.104;19.656;2024-01-30T02:52:35;153.82;;;83.75;;
56122;SDS011;42426;46.104;19.656;2024-01-30T02:55:01;151.77;;;79.72;;
56122;SDS011;42426;46.104;19.656;2024-01-30T02:57:28;145.10;;;80.40;;
56122;SDS011;42426;46.104;19.656;2024-01-30T02:59:54;152.63;;;81.18;;
56122;SDS011;42426;46.104;19.656;2024-01-30T03:02:20;152.13;;;86.75;;
56122;SDS011;42426;46.104;19.656;2024-01-30T03:04:47;152.27;;;80.97;;
56122;SDS011;42426;46.104;19.656;2024-01-30T03:07:13;139.27;;;77.50;;
56122;SDS011;42426;46.104;19.656;2024-01-30T03:09:40;141.82;;;77.18;;
56122;SDS011;42426;46.104;19.656;2024-01-30T03:12:08;143.10;;;78.93;;
56122;SDS011;42426;46.104;19.656;2024-01-30T03:14:34;145.00;;;77.30;;
56122;SDS011;42426;46.104;19.656;2024-01-30T03:17:01;150.05;;;73.60;;
56122;SDS011;42426;46.104;19.656;2024-01-30T03:19:27;127.32;;;66.07;;
56122;SDS011;42426;46.104;19.656;2024-01-30T03:21:54;110.90;;;62.25;;
56122;SDS011;42426;46.104;19.656;2024-01-30T03:24:20;108.38;;;58.28;;
56122;SDS011;42426;46.104;19.656;2024-01-30T03:26:46;117.05;;;60.03;;
56122;SDS011;42426;46.104;19.656;2024-01-30T03:29:12;126.15;;;64.25;;
56122;SDS011;42426;46.104;19.656;2024-01-30T03:31:39;118.22;;;66.03;;
56122;SDS011;42426;46.104;19.656;2024-01-30T03:34:05;135.52;;;69.80;;
56122;SDS011;42426;46.104;19.656;2024-01-30T03:36:31;128.02;;;65.95;;
56122;SDS011;42426;46.104;19.656;2024-01-30T03:38:59;126.32;;;66.03;;
56122;SDS011;42426;46.104;19.656;2024-01-30T03:41:25;112.53;;;64.28;;
56122;SDS011;42426;46.104;19.656;2024-01-30T03:43:51;129.93;;;66.03;;
56122;SDS011;42426;46.104;19.656;2024-01-30T03:46:17;146.48;;;74.00;;
56122;SDS011;42426;46.104;19.656;2024-01-30T03:48:45;150.10;;;78.20;;
56122;SDS011;42426;46.104;19.656;2024-01-30T03:51:11;153.23;;;77.32;;
56122;SDS011;42426;46.104;19.656;2024-01-30T03:53:44;147.15;;;77.70;;
56122;SDS011;42426;46.104;19.656;2024-01-30T03:56:13;146.50;;;74.32;;
56122;SDS011;42426;46.104;19.656;2024-01-30T03:58:39;145.63;;;76.28;;
56122;SDS011;42426;46.104;19.656;2024-01-30T04:01:06;140.73;;;72.25;;
56122;SDS011;42426;46.104;19.656;2024-01-30T04:03:32;137.43;;;70.85;;
56122;SDS011;42426;46.104;19.656;2024-01-30T04:05:58;149.77;;;76.10;;
56122;SDS011;42426;46.104;19.656;2024-01-30T04:08:24;149.20;;;75.65;;
56122;SDS011;42426;46.104;19.656;2024-01-30T04:10:50;137.32;;;73.05;;
56122;SDS011;42426;46.104;19.656;2024-01-30T04:13:16;139.32;;;72.22;;
56122;SDS011;42426;46.104;19.656;2024-01-30T04:15:42;140.43;;;69.65;;
56122;SDS011;42426;46.104;19.656;2024-01-30T04:18:10;134.77;;;69.53;;
56122;SDS011;42426;46.104;19.656;2024-01-30T04:20:36;139.35;;;70.50;;
56122;SDS011;42426;46.104;19.656;2024-01-30T04:23:02;138.30;;;68.82;;
56122;SDS011;42426;46.104;19.656;2024-01-30T04:25:28;140.55;;;67.88;;
56122;SDS011;42426;46.104;19.656;2024-01-30T04:27:54;120.18;;;61.97;;
56122;SDS011;42426;46.104;19.656;2024-01-30T04:30:20;130.73;;;67.78;;
56122;SDS011;42426;46.104;19.656;2024-01-30T04:32:46;127.85;;;65.00;;
56122;SDS011;42426;46.104;19.656;2024-01-30T04:35:12;132.68;;;68.20;;
56122;SDS011;42426;46.104;19.656;2024-01-30T04:37:38;108.18;;;59.80;;
56122;SDS011;42426;46.104;19.656;2024-01-30T04:40:04;114.88;;;60.47;;
56122;SDS011;42426;46.104;19.656;2024-01-30T04:42:31;114.15;;;54.97;;
56122;SDS011;42426;46.104;19.656;2024-01-30T04:44:57;101.25;;;50.78;;
56122;SDS011;42426;46.104;19.656;2024-01-30T04:47:23;92.30;;;47.78;;
56122;SDS011;42426;46.104;19.656;2024-01-30T04:49:51;87.85;;;46.95;;
56122;SDS011;42426;46.104;19.656;2024-01-30T04:52:17;92.43;;;46.83;;
56122;SDS011;42426;46.104;19.656;2024-01-30T04:54:43;90.80;;;45.97;;
56122;SDS011;42426;46.104;19.656;2024-01-30T04:57:09;96.15;;;48.47;;
56122;SDS011;42426;46.104;19.656;2024-01-30T04:59:37;85.95;;;43.05;;
56122;SDS011;42426;46.104;19.656;2024-01-30T05:02:03;88.70;;;41.03;;
56122;SDS011;42426;46.104;19.656;2024-01-30T05:04:29;82.07;;;41.58;;
56122;SDS011;42426;46.104;19.656;2024-01-30T05:06:55;83.53;;;39.35;;
56122;SDS011;42426;46.104;19.656;2024-01-30T05:09:21;85.03;;;41.70;;
56122;SDS011;42426;46.104;19.656;2024-01-30T05:11:47;78.40;;;40.90;;
56122;SDS011;42426;46.104;19.656;2024-01-30T05:14:14;77.60;;;39.65;;
56122;SDS011;42426;46.104;19.656;2024-01-30T05:16:40;71.50;;;38.05;;
56122;SDS011;42426;46.104;19.656;2024-01-30T05:19:08;64.40;;;34.45;;
56122;SDS011;42426;46.104;19.656;2024-01-30T05:21:34;70.35;;;35.28;;
56122;SDS011;42426;46.104;19.656;2024-01-30T05:24:00;54.30;;;30.70;;
56122;SDS011;42426;46.104;19.656;2024-01-30T05:26:26;47.08;;;24.65;;
56122;SDS011;42426;46.104;19.656;2024-01-30T05:28:52;38.30;;;23.73;;
56122;SDS011;42426;46.104;19.656;2024-01-30T05:31:18;40.53;;;24.08;;
56122;SDS011;42426;46.104;19.656;2024-01-30T05:33:46;36.95;;;23.58;;
56122;SDS011;42426;46.104;19.656;2024-01-30T05:36:13;41.30;;;23.65;;
56122;SDS011;42426;46.104;19.656;2024-01-30T05:38:39;37.05;;;22.73;;
56122;SDS011;42426;46.104;19.656;2024-01-30T05:41:07;41.53;;;23.73;;
56122;SDS011;42426;46.104;19.656;2024-01-30T05:43:34;40.20;;;23.50;;
56122;SDS011;42426;46.104;19.656;2024-01-30T05:46:00;41.85;;;23.17;;
56122;SDS011;42426;46.104;19.656;2024-01-30T05:48:26;41.35;;;25.25;;
56122;SDS011;42426;46.104;19.656;2024-01-30T05:50:52;40.50;;;23.35;;
56122;SDS011;42426;46.104;19.656;2024-01-30T05:53:18;42.92;;;23.63;;
56122;SDS011;42426;46.104;19.656;2024-01-30T05:55:44;40.45;;;23.67;;
56122;SDS011;42426;46.104;19.656;2024-01-30T05:58:11;47.90;;;26.67;;
56122;SDS011;42426;46.104;19.656;2024-01-30T06:00:37;45.05;;;25.88;;
56122;SDS011;42426;46.104;19.656;2024-01-30T06:03:03;53.15;;;26.98;;
56122;SDS011;42426;46.104;19.656;2024-01-30T06:05:29;46.42;;;25.73;;
56122;SDS011;42426;46.104;19.656;2024-01-30T06:07:55;44.17;;;24.42;;
56122;SDS011;42426;46.104;19.656;2024-01-30T06:10:21;53.95;;;29.58;;
56122;SDS011;42426;46.104;19.656;2024-01-30T06:12:47;56.10;;;31.33;;
56122;SDS011;42426;46.104;19.656;2024-01-30T06:15:16;66.43;;;32.55;;
56122;SDS011;42426;46.104;19.656;2024-01-30T06:17:42;80.15;;;36.22;;
56122;SDS011;42426;46.104;19.656;2024-01-30T06:20:08;70.80;;;32.55;;
56122;SDS011;42426;46.104;19.656;2024-01-30T06:22:34;58.53;;;30.20;;
56122;SDS011;42426;46.104;19.656;2024-01-30T06:25:00;52.08;;;30.58;;
56122;SDS011;42426;46.104;19.656;2024-01-30T06:27:26;60.25;;;31.27;;
56122;SDS011;42426;46.104;19.656;2024-01-30T06:29:52;63.13;;;31.75;;
56122;SDS011;42426;46.104;19.656;2024-01-30T06:32:18;53.65;;;29.02;;
56122;SDS011;42426;46.104;19.656;2024-01-30T06:34:45;49.97;;;29.15;;
56122;SDS011;42426;46.104;19.656;2024-01-30T06:37:11;56.92;;;28.92;;
56122;SDS011;42426;46.104;19.656;2024-01-30T06:39:37;50.25;;;27.63;;
56122;SDS011;42426;46.104;19.656;2024-01-30T06:42:03;50.50;;;27.08;;
56122;SDS011;42426;46.104;19.656;2024-01-30T06:44:29;44.45;;;25.92;;
56122;SDS011;42426;46.104;19.656;2024-01-30T06:46:55;42.88;;;24.30;;
56122;SDS011;42426;46.104;19.656;2024-01-30T06:49:21;39.10;;;23.60;;
56122;SDS011;42426;46.104;19.656;2024-01-30T06:51:47;38.83;;;20.95;;
56122;SDS011;42426;46.104;19.656;2024-01-30T06:54:13;35.90;;;21.02;;
56122;SDS011;42426;46.104;19.656;2024-01-30T06:56:39;38.17;;;22.25;;
56122;SDS011;42426;46.104;19.656;2024-01-30T06:59:05;38.85;;;19.58;;
56122;SDS011;42426;46.104;19.656;2024-01-30T07:01:32;37.92;;;23.40;;
56122;SDS011;42426;46.104;19.656;2024-01-30T07:03:58;48.92;;;23.95;;
56122;SDS011;42426;46.104;19.656;2024-01-30T07:06:24;39.60;;;22.33;;
56122;SDS011;42426;46.104;19.656;2024-01-30T07:08:52;41.58;;;22.92;;
56122;SDS011;42426;46.104;19.656;2024-01-30T07:11:19;40.90;;;22.42;;
56122;SDS011;42426;46.104;19.656;2024-01-30T07:13:46;40.78;;;22.55;;
56122;SDS011;42426;46.104;19.656;2024-01-30T07:16:13;37.72;;;23.60;;
56122;SDS011;42426;46.104;19.656;2024-01-30T07:18:39;40.80;;;22.15;;
56122;SDS011;42426;46.104;19.656;2024-01-30T07:21:05;34.20;;;21.02;;
56122;SDS011;42426;46.104;19.656;2024-01-30T07:23:31;34.05;;;20.40;;
56122;SDS011;42426;46.104;19.656;2024-01-30T07:25:59;37.30;;;21.65;;
56122;SDS011;42426;46.104;19.656;2024-01-30T07:28:26;43.78;;;23.80;;
56122;SDS011;42426;46.104;19.656;2024-01-30T07:30:52;46.35;;;26.17;;
56122;SDS011;42426;46.104;19.656;2024-01-30T07:33:19;44.85;;;24.45;;
56122;SDS011;42426;46.104;19.656;2024-01-30T07:35:45;47.63;;;27.52;;
56122;SDS011;42426;46.104;19.656;2024-01-30T07:38:12;48.38;;;25.58;;
56122;SDS011;42426;46.104;19.656;2024-01-30T07:40:38;41.85;;;24.60;;
56122;SDS011;42426;46.104;19.656;2024-01-30T07:43:04;46.28;;;26.13;;
56122;SDS011;42426;46.104;19.656;2024-01-30T07:45:30;46.50;;;26.38;;
56122;SDS011;42426;46.104;19.656;2024-01-30T07:47:59;40.85;;;24.65;;
56122;SDS011;42426;46.104;19.656;2024-01-30T07:50:25;38.60;;;22.63;;
56122;SDS011;42426;46.104;19.656;2024-01-30T07:52:51;39.83;;;23.00;;
56122;SDS011;42426;46.104;19.656;2024-01-30T07:55:20;39.78;;;23.67;;
56122;SDS011;42426;46.104;19.656;2024-01-30T07:57:52;40.90;;;21.63;;
56122;SDS011;42426;46.104;19.656;2024-01-30T08:00:20;47.20;;;23.48;;
56122;SDS011;42426;46.104;19.656;2024-01-30T08:02:52;36.88;;;23.67;;
56122;SDS011;42426;46.104;19.656;2024-01-30T08:05:19;38.57;;;23.10;;
56122;SDS011;42426;46.104;19.656;2024-01-30T08:07:47;46.67;;;23.02;;
56122;SDS011;42426;46.104;19.656;2024-01-30T08:10:14;46.17;;;23.50;;
56122;SDS011;42426;46.104;19.656;2024-01-30T08:12:40;41.33;;;24.10;;
56122;SDS011;42426;46.104;19.656;2024-01-30T08:15:07;44.53;;;23.15;;
56122;SDS011;42426;46.104;19.656;2024-01-30T08:17:33;40.05;;;23.35;;
56122;SDS011;42426;46.104;19.656;2024-01-30T08:20:00;41.67;;;24.73;;
56122;SDS011;42426;46.104;19.656;2024-01-30T08:22:27;40.45;;;23.05;;
56122;SDS011;42426;46.104;19.656;2024-01-30T08:24:53;38.20;;;23.27;;
56122;SDS011;42426;46.104;19.656;2024-01-30T08:27:19;38.42;;;22.55;;
56122;SDS011;42426;46.104;19.656;2024-01-30T08:29:45;37.92;;;21.85;;
56122;SDS011;42426;46.104;19.656;2024-01-30T08:32:11;40.30;;;21.70;;
56122;SDS011;42426;46.104;19.656;2024-01-30T08:34:38;39.53;;;21.30;;
56122;SDS011;42426;46.104;19.656;2024-01-30T08:37:04;43.55;;;23.20;;
56122;SDS011;42426;46.104;19.656;2024-01-30T08:39:30;37.17;;;23.85;;
56122;SDS011;42426;46.104;19.656;2024-01-30T08:41:56;31.92;;;18.27;;
56122;SDS011;42426;46.104;19.656;2024-01-30T08:44:24;34.03;;;20.75;;
56122;SDS011;42426;46.104;19.656;2024-01-30T08:46:50;38.17;;;20.77;;
56122;SDS011;42426;46.104;19.656;2024-01-30T08:49:16;41.72;;;21.27;;
56122;SDS011;42426;46.104;19.656;2024-01-30T08:51:42;43.03;;;21.08;;
56122;SDS011;42426;46.104;19.656;2024-01-30T08:54:09;35.42;;;20.05;;
56122;SDS011;42426;46.104;19.656;2024-01-30T08:56:35;36.25;;;21.45;;
56122;SDS011;42426;46.104;19.656;2024-01-30T08:59:01;38.35;;;22.13;;
56122;SDS011;42426;46.104;19.656;2024-01-30T09:01:27;41.42;;;21.80;;
56122;SDS011;42426;46.104;19.656;2024-01-30T09:03:54;41.22;;;21.80;;
56122;SDS011;42426;46.104;19.656;2024-01-30T09:06:20;41.38;;;20.33;;
56122;SDS011;42426;46.104;19.656;2024-01-30T09:08:45;36.03;;;20.65;;
56122;SDS011;42426;46.104;19.656;2024-01-30T09:11:12;40.25;;;23.67;;
56122;SDS011;42426;46.104;19.656;2024-01-30T09:13:39;40.33;;;22.60;;
56122;SDS011;42426;46.104;19.656;2024-01-30T09:16:05;39.50;;;24.58;;
56122;SDS011;42426;46.104;19.656;2024-01-30T09:18:32;36.20;;;21.67;;
56122;SDS011;42426;46.104;19.656;2024-01-30T09:20:59;46.40;;;24.33;;
56122;SDS011;42426;46.104;19.656;2024-01-30T09:23:27;44.00;;;23.65;;
56122;SDS011;42426;46.104;19.656;2024-01-30T09:25:53;38.00;;;22.10;;
56122;SDS011;42426;46.104;19.656;2024-01-30T09:28:19;43.22;;;24.23;;
56122;SDS011;42426;46.104;19.656;2024-01-30T09:30:45;44.72;;;26.52;;
56122;SDS011;42426;46.104;19.656;2024-01-30T09:33:12;54.97;;;26.60;;
56122;SDS011;42426;46.104;19.656;2024-01-30T09:35:38;43.10;;;25.05;;
56122;SDS011;42426;46.104;19.656;2024-01-30T09:38:04;41.15;;;22.55;;
56122;SDS011;42426;46.104;19.656;2024-01-30T09:40:30;43.53;;;23.42;;
56122;SDS011;42426;46.104;19.656;2024-01-30T09:42:57;42.28;;;24.73;;
56122;SDS011;42426;46.104;19.656;2024-01-30T09:45:27;40.05;;;23.23;;
56122;SDS011;42426;46.104;19.656;2024-01-30T09:47:53;36.90;;;21.60;;
56122;SDS011;42426;46.104;19.656;2024-01-30T09:50:20;46.85;;;25.70;;
56122;SDS011;42426;46.104;19.656;2024-01-30T09:52:46;40.40;;;22.23;;
56122;SDS011;42426;46.104;19.656;2024-01-30T09:55:13;44.13;;;23.33;;
56122;SDS011;42426;46.104;19.656;2024-01-30T09:57:39;40.17;;;23.95;;
56122;SDS011;42426;46.104;19.656;2024-01-30T10:00:07;39.97;;;21.48;;
56122;SDS011;42426;46.104;19.656;2024-01-30T10:02:34;41.10;;;24.30;;
56122;SDS011;42426;46.104;19.656;2024-01-30T10:05:00;39.88;;;22.67;;
56122;SDS011;42426;46.104;19.656;2024-01-30T10:07:27;38.20;;;21.67;;
56122;SDS011;42426;46.104;19.656;2024-01-30T10:09:53;39.92;;;22.80;;
56122;SDS011;42426;46.104;19.656;2024-01-30T10:12:21;44.05;;;23.92;;
56122;SDS011;42426;46.104;19.656;2024-01-30T10:14:47;40.50;;;24.02;;
56122;SDS011;42426;46.104;19.656;2024-01-30T10:17:14;43.90;;;25.05;;
56122;SDS011;42426;46.104;19.656;2024-01-30T10:19:41;44.95;;;25.15;;
56122;SDS011;42426;46.104;19.656;2024-01-30T10:22:07;39.33;;;22.20;;
56122;SDS011;42426;46.104;19.656;2024-01-30T10:24:35;38.95;;;22.70;;
56122;SDS011;42426;46.104;19.656;2024-01-30T10:27:01;42.85;;;22.75;;
56122;SDS011;42426;46.104;19.656;2024-01-30T10:29:28;43.95;;;25.60;;
56122;SDS011;42426;46.104;19.656;2024-01-30T10:32:03;40.90;;;23.85;;
56122;SDS011;42426;46.104;19.656;2024-01-30T10:34:30;43.70;;;25.17;;
56122;SDS011;42426;46.104;19.656;2024-01-30T10:39:26;43.92;;;24.27;;
56122;SDS011;42426;46.104;19.656;2024-01-30T10:41:53;41.42;;;24.83;;
56122;SDS011;42426;46.104;19.656;2024-01-30T10:44:22;43.35;;;24.75;;
56122;SDS011;42426;46.104;19.656;2024-01-30T10:46:50;41.80;;;27.55;;
56122;SDS011;42426;46.104;19.656;2024-01-30T10:49:17;42.78;;;26.75;;
56122;SDS011;42426;46.104;19.656;2024-01-30T10:51:43;43.38;;;24.92;;
56122;SDS011;42426;46.104;19.656;2024-01-30T10:54:09;39.30;;;24.02;;
56122;SDS011;42426;46.104;19.656;2024-01-30T10:56:36;38.92;;;24.13;;
56122;SDS011;42426;46.104;19.656;2024-01-30T10:59:03;38.95;;;23.60;;
56122;SDS011;42426;46.104;19.656;2024-01-30T11:01:29;38.08;;;21.10;;
56122;SDS011;42426;46.104;19.656;2024-01-30T11:03:55;46.45;;;24.15;;
56122;SDS011;42426;46.104;19.656;2024-01-30T11:06:22;40.25;;;24.08;;
56122;SDS011;42426;46.104;19.656;2024-01-30T11:09:04;36.20;;;23.90;;
56122;SDS011;42426;46.104;19.656;2024-01-30T11:14:23;39.67;;;23.40;;
56122;SDS011;42426;46.104;19.656;2024-01-30T11:16:50;41.03;;;23.13;;
56122;SDS011;42426;46.104;19.656;2024-01-30T11:19:22;41.42;;;23.08;;
56122;SDS011;42426;46.104;19.656;2024-01-30T11:21:50;35.47;;;22.77;;
56122;SDS011;42426;46.104;19.656;2024-01-30T11:24:19;41.63;;;22.60;;
56122;SDS011;42426;46.104;19.656;2024-01-30T11:26:47;41.10;;;23.35;;
56122;SDS011;42426;46.104;19.656;2024-01-30T11:29:13;39.63;;;23.95;;
56122;SDS011;42426;46.104;19.656;2024-01-30T11:31:51;43.33;;;22.95;;
56122;SDS011;42426;46.104;19.656;2024-01-30T11:34:17;45.00;;;24.15;;
56122;SDS011;42426;46.104;19.656;2024-01-30T11:36:44;39.55;;;24.38;;
56122;SDS011;42426;46.104;19.656;2024-01-30T11:39:15;41.30;;;25.25;;
56122;SDS011;42426;46.104;19.656;2024-01-30T11:41:42;42.47;;;23.67;;
56122;SDS011;42426;46.104;19.656;2024-01-30T11:44:10;32.33;;;22.65;;
56122;SDS011;42426;46.104;19.656;2024-01-30T11:46:36;38.90;;;23.13;;
56122;SDS011;42426;46.104;19.656;2024-01-30T11:49:02;39.10;;;23.73;;
56122;SDS011;42426;46.104;19.656;2024-01-30T11:51:30;43.72;;;24.83;;
56122;SDS011;42426;46.104;19.656;2024-01-30T11:53:57;38.22;;;23.00;;
56122;SDS011;42426;46.104;19.656;2024-01-30T11:56:23;39.13;;;23.17;;
56122;SDS011;42426;46.104;19.656;2024-01-30T11:58:52;46.70;;;25.30;;
56122;SDS011;42426;46.104;19.656;2024-01-30T12:01:18;38.10;;;24.15;;
56122;SDS011;42426;46.104;19.656;2024-01-30T12:03:53;37.08;;;22.75;;
56122;SDS011;42426;46.104;19.656;2024-01-30T12:06:19;34.70;;;22.15;;
56122;SDS011;42426;46.104;19.656;2024-01-30T12:08:58;38.15;;;20.88;;
56122;SDS011;42426;46.104;19.656;2024-01-30T12:11:25;39.17;;;24.98;;
56122;SDS011;42426;46.104;19.656;2024-01-30T12:13:52;35.13;;;23.13;;
56122;SDS011;42426;46.104;19.656;2024-01-30T12:16:19;34.47;;;22.02;;
56122;SDS011;42426;46.104;19.656;2024-01-30T12:18:45;36.85;;;22.08;;
56122;SDS011;42426;46.104;19.656;2024-01-30T12:21:12;33.47;;;19.35;;
56122;SDS011;42426;46.104;19.656;2024-01-30T12:23:41;32.03;;;20.02;;
56122;SDS011;42426;46.104;19.656;2024-01-30T12:26:08;33.00;;;19.63;;
56122;SDS011;42426;46.104;19.656;2024-01-30T12:28:34;29.52;;;19.35;;
56122;SDS011;42426;46.104;19.656;2024-01-30T12:31:03;40.80;;;22.02;;
56122;SDS011;42426;46.104;19.656;2024-01-30T12:33:30;30.27;;;18.75;;
56122;SDS011;42426;46.104;19.656;2024-01-30T12:35:56;35.38;;;20.23;;
56122;SDS011;42426;46.104;19.656;2024-01-30T12:38:26;36.03;;;20.42;;
56122;SDS011;42426;46.104;19.656;2024-01-30T12:40:55;33.42;;;19.38;;
56122;SDS011;42426;46.104;19.656;2024-01-30T12:43:26;41.05;;;22.35;;
56122;SDS011;42426;46.104;19.656;2024-01-30T12:45:53;36.58;;;21.20;;
56122;SDS011;42426;46.104;19.656;2024-01-30T12:48:19;38.90;;;21.40;;
56122;SDS011;42426;46.104;19.656;2024-01-30T12:50:46;35.10;;;19.65;;
56122;SDS011;42426;46.104;19.656;2024-01-30T12:53:12;36.15;;;21.35;;
56122;SDS011;42426;46.104;19.656;2024-01-30T12:55:38;36.17;;;18.90;;
56122;SDS011;42426;46.104;19.656;2024-01-30T12:58:04;34.38;;;19.73;;
56122;SDS011;42426;46.104;19.656;2024-01-30T13:00:30;32.88;;;19.50;;
56122;SDS011;42426;46.104;19.656;2024-01-30T13:02:58;30.40;;;18.27;;
56122;SDS011;42426;46.104;19.656;2024-01-30T13:05:24;30.90;;;19.65;;
56122;SDS011;42426;46.104;19.656;2024-01-30T13:07:50;27.52;;;17.40;;
56122;SDS011;42426;46.104;19.656;2024-01-30T13:10:18;35.90;;;19.38;;
56122;SDS011;42426;46.104;19.656;2024-01-30T13:12:44;32.38;;;18.83;;
56122;SDS011;42426;46.104;19.656;2024-01-30T13:15:10;51.22;;;21.35;;
56122;SDS011;42426;46.104;19.656;2024-01-30T13:17:36;31.95;;;19.38;;
56122;SDS011;42426;46.104;19.656;2024-01-30T13:20:03;30.00;;;18.35;;
56122;SDS011;42426;46.104;19.656;2024-01-30T13:22:29;35.90;;;19.50;;
56122;SDS011;42426;46.104;19.656;2024-01-30T13:24:55;38.15;;;17.98;;
56122;SDS011;42426;46.104;19.656;2024-01-30T13:27:21;42.60;;;19.10;;
56122;SDS011;42426;46.104;19.656;2024-01-30T13:29:47;35.15;;;20.33;;
56122;SDS011;42426;46.104;19.656;2024-01-30T13:32:15;40.25;;;17.48;;
56122;SDS011;42426;46.104;19.656;2024-01-30T13:34:41;30.90;;;17.33;;
56122;SDS011;42426;46.104;19.656;2024-01-30T13:37:08;26.33;;;17.15;;
56122;SDS011;42426;46.104;19.656;2024-01-30T13:39:34;36.10;;;17.77;;
56122;SDS011;42426;46.104;19.656;2024-01-30T13:41:59;25.33;;;16.42;;
56122;SDS011;42426;46.104;19.656;2024-01-30T13:44:26;26.95;;;16.50;;
56122;SDS011;42426;46.104;19.656;2024-01-30T13:46:52;24.58;;;15.50;;
56122;SDS011;42426;46.104;19.656;2024-01-30T13:49:20;26.00;;;15.55;;
56122;SDS011;42426;46.104;19.656;2024-01-30T13:51:46;25.83;;;14.57;;
56122;SDS011;42426;46.104;19.656;2024-01-30T13:54:12;24.08;;;15.40;;
56122;SDS011;42426;46.104;19.656;2024-01-30T13:56:40;29.90;;;17.42;;
56122;SDS011;42426;46.104;19.656;2024-01-30T13:59:06;26.05;;;15.52;;
56122;SDS011;42426;46.104;19.656;2024-01-30T14:01:32;24.08;;;14.95;;
56122;SDS011;42426;46.104;19.656;2024-01-30T14:03:58;25.33;;;16.13;;
56122;SDS011;42426;46.104;19.656;2024-01-30T14:06:24;22.95;;;12.80;;